sensor_id;sensor_type;location;lat;lon;timestamp;pressure;altitude;pressure_sealevel;temperature;humidity
35307;BME280;21420;52.196;21.416;2023-07-20T00:01:51;99501.55;;;15.73;47.04
35307;BME280;21420;52.196;21.416;2023-07-20T00:04:17;99499.93;;;15.62;47.22
35307;BME280;21420;52.196;21.416;2023-07-20T00:06:44;99497.86;;;15.55;47.47
35307;BME280;21420;52.196;21.416;2023-07-20T00:09:12;99494.76;;;15.50;47.56
35307;BME280;21420;52.196;21.416;2023-07-20T00:11:39;99495.23;;;15.46;47.56
35307;BME280;21420;52.196;21.416;2023-07-20T00:14:06;99491.52;;;15.42;47.77
35307;BME280;21420;52.196;21.416;2023-07-20T00:16:33;99483.63;;;15.36;47.73
35307;BME280;21420;52.196;21.416;2023-07-20T00:19:00;99477.94;;;15.31;47.85
35307;BME280;21420;52.196;21.416;2023-07-20T00:21:26;99470.35;;;15.28;47.99
35307;BME280;21420;52.196;21.416;2023-07-20T00:23:53;99466.02;;;15.25;48.02
35307;BME280;21420;52.196;21.416;2023-07-20T00:26:20;99467.58;;;15.21;48.07
35307;BME280;21420;52.196;21.416;2023-07-20T00:28:50;99465.76;;;15.16;48.19
35307;BME280;21420;52.196;21.416;2023-07-20T00:31:18;99463.38;;;15.12;48.26
35307;BME280;21420;52.196;21.416;2023-07-20T00:33:45;99459.13;;;15.14;48.43
35307;BME280;21420;52.196;21.416;2023-07-20T00:36:12;99455.52;;;15.14;48.50
35307;BME280;21420;52.196;21.416;2023-07-20T00:38:42;99452.58;;;15.12;48.56
35307;BME280;21420;52.196;21.416;2023-07-20T00:41:09;99454.87;;;15.12;48.60
35307;BME280;21420;52.196;21.416;2023-07-20T00:43:35;99458.34;;;15.11;48.76
35307;BME280;21420;52.196;21.416;2023-07-20T00:46:02;99456.05;;;15.09;48.84
35307;BME280;21420;52.196;21.416;2023-07-20T00:48:31;99455.73;;;15.07;48.89
35307;BME280;21420;52.196;21.416;2023-07-20T00:51:00;99454.70;;;15.06;48.96
35307;BME280;21420;52.196;21.416;2023-07-20T00:53:28;99453.73;;;15.07;49.04
35307;BME280;21420;52.196;21.416;2023-07-20T00:55:55;99452.72;;;15.06;49.17
35307;BME280;21420;52.196;21.416;2023-07-20T00:58:22;99454.45;;;15.05;49.35
35307;BME280;21420;52.196;21.416;2023-07-20T01:00:50;99455.86;;;15.05;49.31
35307;BME280;21420;52.196;21.416;2023-07-20T01:03:18;99457.13;;;15.05;49.41
35307;BME280;21420;52.196;21.416;2023-07-20T01:05:54;99462.48;;;15.05;49.49
35307;BME280;21420;52.196;21.416;2023-07-20T01:12:09;99470.27;;;15.01;49.76
35307;BME280;21420;52.196;21.416;2023-07-20T01:14:14;99468.38;;;14.99;49.75
35307;BME280;21420;52.196;21.416;2023-07-20T01:16:40;99468.77;;;14.99;49.77
35307;BME280;21420;52.196;21.416;2023-07-20T01:19:07;99463.02;;;15.00;50.01
35307;BME280;21420;52.196;21.416;2023-07-20T01:21:53;99458.61;;;15.00;50.08
35307;BME280;21420;52.196;21.416;2023-07-20T01:24:37;99461.84;;;15.00;50.14
35307;BME280;21420;52.196;21.416;2023-07-20T01:32:34;99464.75;;;14.99;50.24
35307;BME280;21420;52.196;21.416;2023-07-20T01:35:04;99468.05;;;14.99;50.59
35307;BME280;21420;52.196;21.416;2023-07-20T01:37:33;99469.06;;;14.95;50.40
35307;BME280;21420;52.196;21.416;2023-07-20T01:40:01;99469.30;;;14.96;50.32
35307;BME280;21420;52.196;21.416;2023-07-20T01:42:28;99472.70;;;14.98;50.50
35307;BME280;21420;52.196;21.416;2023-07-20T01:44:55;99467.11;;;14.99;50.58
35307;BME280;21420;52.196;21.416;2023-07-20T01:47:23;99457.35;;;14.98;50.80
35307;BME280;21420;52.196;21.416;2023-07-20T01:49:50;99453.24;;;14.95;50.81
35307;BME280;21420;52.196;21.416;2023-07-20T01:52:16;99456.29;;;14.91;50.80
35307;BME280;21420;52.196;21.416;2023-07-20T01:54:43;99462.25;;;14.88;50.95
35307;BME280;21420;52.196;21.416;2023-07-20T01:57:10;99467.10;;;14.82;50.91
35307;BME280;21420;52.196;21.416;2023-07-20T01:59:37;99472.59;;;14.77;50.82
35307;BME280;21420;52.196;21.416;2023-07-20T02:02:04;99478.16;;;14.71;51.03
35307;BME280;21420;52.196;21.416;2023-07-20T02:04:30;99485.98;;;14.64;50.99
35307;BME280;21420;52.196;21.416;2023-07-20T02:06:57;99495.19;;;14.53;50.89
35307;BME280;21420;52.196;21.416;2023-07-20T02:09:24;99508.63;;;14.40;51.04
35307;BME280;21420;52.196;21.416;2023-07-20T02:11:50;99516.28;;;14.34;51.18
35307;BME280;21420;52.196;21.416;2023-07-20T02:14:19;99517.61;;;14.30;51.35
35307;BME280;21420;52.196;21.416;2023-07-20T02:16:53;99523.98;;;14.30;51.56
35307;BME280;21420;52.196;21.416;2023-07-20T02:19:26;99524.87;;;14.32;51.81
35307;BME280;21420;52.196;21.416;2023-07-20T02:21:55;99523.86;;;14.34;51.77
35307;BME280;21420;52.196;21.416;2023-07-20T02:24:22;99515.64;;;14.39;51.77
35307;BME280;21420;52.196;21.416;2023-07-20T02:26:49;99504.49;;;14.45;51.70
35307;BME280;21420;52.196;21.416;2023-07-20T02:29:15;99502.56;;;14.50;51.93
35307;BME280;21420;52.196;21.416;2023-07-20T02:31:42;99508.77;;;14.56;51.96
35307;BME280;21420;52.196;21.416;2023-07-20T02:34:09;99508.31;;;14.61;52.00
35307;BME280;21420;52.196;21.416;2023-07-20T02:36:36;99505.13;;;14.65;52.03
35307;BME280;21420;52.196;21.416;2023-07-20T02:39:03;99495.13;;;14.65;52.02
35307;BME280;21420;52.196;21.416;2023-07-20T02:41:33;99487.73;;;14.65;52.24
35307;BME280;21420;52.196;21.416;2023-07-20T02:44:00;99485.76;;;14.65;52.26
35307;BME280;21420;52.196;21.416;2023-07-20T02:46:28;99483.00;;;14.65;52.34
35307;BME280;21420;52.196;21.416;2023-07-20T02:48:57;99474.36;;;14.66;52.43
35307;BME280;21420;52.196;21.416;2023-07-20T02:51:24;99475.23;;;14.67;52.41
35307;BME280;21420;52.196;21.416;2023-07-20T02:53:51;99473.03;;;14.69;52.49
35307;BME280;21420;52.196;21.416;2023-07-20T02:56:17;99474.31;;;14.73;52.55
35307;BME280;21420;52.196;21.416;2023-07-20T02:58:44;99471.33;;;14.76;52.80
35307;BME280;21420;52.196;21.416;2023-07-20T03:01:12;99465.75;;;14.77;52.77
35307;BME280;21420;52.196;21.416;2023-07-20T03:03:42;99466.79;;;14.80;52.94
35307;BME280;21420;52.196;21.416;2023-07-20T03:06:14;99462.46;;;14.83;52.97
35307;BME280;21420;52.196;21.416;2023-07-20T03:08:42;99464.08;;;14.87;52.99
35307;BME280;21420;52.196;21.416;2023-07-20T03:11:16;99461.02;;;14.91;52.92
35307;BME280;21420;52.196;21.416;2023-07-20T03:13:43;99455.45;;;14.94;53.12
35307;BME280;21420;52.196;21.416;2023-07-20T03:16:12;99458.59;;;14.95;53.20
35307;BME280;21420;52.196;21.416;2023-07-20T03:18:42;99455.29;;;14.97;53.25
35307;BME280;21420;52.196;21.416;2023-07-20T03:21:10;99454.36;;;15.00;53.17
35307;BME280;21420;52.196;21.416;2023-07-20T03:23:40;99453.65;;;15.02;53.16
35307;BME280;21420;52.196;21.416;2023-07-20T03:26:09;99454.13;;;15.01;53.21
35307;BME280;21420;52.196;21.416;2023-07-20T03:28:36;99449.95;;;14.98;53.16
35307;BME280;21420;52.196;21.416;2023-07-20T03:31:04;99458.51;;;14.93;53.10
35307;BME280;21420;52.196;21.416;2023-07-20T03:33:33;99464.88;;;14.92;53.15
35307;BME280;21420;52.196;21.416;2023-07-20T03:36:01;99465.52;;;14.92;53.23
35307;BME280;21420;52.196;21.416;2023-07-20T03:38:28;99470.17;;;14.96;53.21
35307;BME280;21420;52.196;21.416;2023-07-20T03:40:56;99470.83;;;15.02;53.44
35307;BME280;21420;52.196;21.416;2023-07-20T03:43:27;99474.79;;;15.08;53.42
35307;BME280;21420;52.196;21.416;2023-07-20T03:45:55;99477.23;;;15.12;53.35
35307;BME280;21420;52.196;21.416;2023-07-20T03:48:24;99478.05;;;15.16;53.60
35307;BME280;21420;52.196;21.416;2023-07-20T03:50:53;99483.17;;;15.19;53.64
35307;BME280;21420;52.196;21.416;2023-07-20T03:53:20;99489.58;;;15.23;53.44
35307;BME280;21420;52.196;21.416;2023-07-20T03:55:48;99493.21;;;15.27;53.61
35307;BME280;21420;52.196;21.416;2023-07-20T03:58:16;99497.86;;;15.28;53.88
35307;BME280;21420;52.196;21.416;2023-07-20T04:00:48;99503.85;;;15.30;53.56
35307;BME280;21420;52.196;21.416;2023-07-20T04:03:17;99509.86;;;15.33;53.60
35307;BME280;21420;52.196;21.416;2023-07-20T04:05:45;99509.63;;;15.37;53.60
35307;BME280;21420;52.196;21.416;2023-07-20T04:08:12;99512.48;;;15.40;53.69
35307;BME280;21420;52.196;21.416;2023-07-20T04:10:39;99521.08;;;15.44;53.81
35307;BME280;21420;52.196;21.416;2023-07-20T04:13:06;99523.14;;;15.48;53.86
35307;BME280;21420;52.196;21.416;2023-07-20T04:15:33;99529.63;;;15.53;53.78
35307;BME280;21420;52.196;21.416;2023-07-20T04:18:00;99536.48;;;15.57;53.82
35307;BME280;21420;52.196;21.416;2023-07-20T04:20:27;99550.13;;;15.61;53.92
35307;BME280;21420;52.196;21.416;2023-07-20T04:22:55;99559.54;;;15.63;53.68
35307;BME280;21420;52.196;21.416;2023-07-20T04:25:22;99571.27;;;15.65;53.69
35307;BME280;21420;52.196;21.416;2023-07-20T04:27:49;99578.45;;;15.66;53.65
35307;BME280;21420;52.196;21.416;2023-07-20T04:30:17;99576.41;;;15.68;53.69
35307;BME280;21420;52.196;21.416;2023-07-20T04:32:46;99579.32;;;15.68;53.85
35307;BME280;21420;52.196;21.416;2023-07-20T04:38:16;99583.86;;;15.71;53.98
35307;BME280;21420;52.196;21.416;2023-07-20T04:40:48;99581.52;;;15.74;54.09
35307;BME280;21420;52.196;21.416;2023-07-20T04:43:16;99587.98;;;15.78;54.14
35307;BME280;21420;52.196;21.416;2023-07-20T04:45:44;99582.09;;;15.80;54.00
35307;BME280;21420;52.196;21.416;2023-07-20T04:48:13;99579.16;;;15.82;54.03
35307;BME280;21420;52.196;21.416;2023-07-20T04:50:45;99583.82;;;15.83;54.11
35307;BME280;21420;52.196;21.416;2023-07-20T04:53:13;99590.45;;;15.86;54.04
35307;BME280;21420;52.196;21.416;2023-07-20T04:55:47;99598.11;;;15.86;53.96
35307;BME280;21420;52.196;21.416;2023-07-20T04:58:18;99602.73;;;15.81;54.25
35307;BME280;21420;52.196;21.416;2023-07-20T05:00:46;99608.80;;;15.76;54.31
35307;BME280;21420;52.196;21.416;2023-07-20T05:03:13;99617.99;;;15.72;54.18
35307;BME280;21420;52.196;21.416;2023-07-20T05:05:41;99615.52;;;15.68;54.13
35307;BME280;21420;52.196;21.416;2023-07-20T05:08:08;99609.05;;;15.66;54.38
35307;BME280;21420;52.196;21.416;2023-07-20T05:10:34;99614.23;;;15.63;54.38
35307;BME280;21420;52.196;21.416;2023-07-20T05:13:01;99617.63;;;15.62;54.54
35307;BME280;21420;52.196;21.416;2023-07-20T05:15:28;99621.17;;;15.64;54.57
35307;BME280;21420;52.196;21.416;2023-07-20T05:17:56;99625.55;;;15.70;54.62
35307;BME280;21420;52.196;21.416;2023-07-20T05:20:23;99628.89;;;15.74;54.82
35307;BME280;21420;52.196;21.416;2023-07-20T05:22:50;99632.21;;;15.76;55.03
35307;BME280;21420;52.196;21.416;2023-07-20T05:25:16;99633.64;;;15.77;54.95
35307;BME280;21420;52.196;21.416;2023-07-20T05:27:45;99636.17;;;15.81;55.05
35307;BME280;21420;52.196;21.416;2023-07-20T05:30:13;99638.32;;;15.84;55.15
35307;BME280;21420;52.196;21.416;2023-07-20T05:32:39;99638.48;;;15.91;55.30
35307;BME280;21420;52.196;21.416;2023-07-20T05:35:07;99639.93;;;15.96;55.37
35307;BME280;21420;52.196;21.416;2023-07-20T05:37:35;99639.08;;;16.03;55.38
35307;BME280;21420;52.196;21.416;2023-07-20T05:40:01;99637.04;;;16.08;55.38
35307;BME280;21420;52.196;21.416;2023-07-20T05:42:28;99640.67;;;16.10;55.32
35307;BME280;21420;52.196;21.416;2023-07-20T05:44:55;99645.25;;;16.14;55.54
35307;BME280;21420;52.196;21.416;2023-07-20T05:47:22;99641.39;;;16.16;55.60
35307;BME280;21420;52.196;21.416;2023-07-20T05:49:48;99642.20;;;16.22;55.70
35307;BME280;21420;52.196;21.416;2023-07-20T05:52:15;99641.58;;;16.31;55.63
35307;BME280;21420;52.196;21.416;2023-07-20T05:54:42;99637.26;;;16.39;55.87
35307;BME280;21420;52.196;21.416;2023-07-20T05:57:08;99639.95;;;16.55;56.13
35307;BME280;21420;52.196;21.416;2023-07-20T05:59:36;99633.79;;;16.72;56.12
35307;BME280;21420;52.196;21.416;2023-07-20T06:02:03;99631.92;;;16.88;56.16
35307;BME280;21420;52.196;21.416;2023-07-20T06:04:30;99629.84;;;17.00;56.00
35307;BME280;21420;52.196;21.416;2023-07-20T06:06:56;99626.98;;;17.10;56.17
35307;BME280;21420;52.196;21.416;2023-07-20T06:09:23;99628.15;;;17.21;56.15
35307;BME280;21420;52.196;21.416;2023-07-20T06:11:50;99628.35;;;17.33;56.35
35307;BME280;21420;52.196;21.416;2023-07-20T06:14:17;99628.95;;;17.44;56.19
35307;BME280;21420;52.196;21.416;2023-07-20T06:16:45;99627.96;;;17.53;56.03
35307;BME280;21420;52.196;21.416;2023-07-20T06:19:11;99625.41;;;17.58;56.00
35307;BME280;21420;52.196;21.416;2023-07-20T06:21:39;99616.52;;;17.67;56.03
35307;BME280;21420;52.196;21.416;2023-07-20T06:24:06;99613.08;;;17.75;56.18
35307;BME280;21420;52.196;21.416;2023-07-20T06:26:32;99612.33;;;17.88;56.10
35307;BME280;21420;52.196;21.416;2023-07-20T06:29:05;99612.09;;;18.02;56.01
35307;BME280;21420;52.196;21.416;2023-07-20T06:31:38;99612.26;;;18.15;56.16
35307;BME280;21420;52.196;21.416;2023-07-20T06:34:05;99604.90;;;18.25;56.01
35307;BME280;21420;52.196;21.416;2023-07-20T06:36:32;99604.34;;;18.36;55.84
35307;BME280;21420;52.196;21.416;2023-07-20T06:38:59;99600.48;;;18.43;55.97
35307;BME280;21420;52.196;21.416;2023-07-20T06:41:29;99596.30;;;18.53;55.76
35307;BME280;21420;52.196;21.416;2023-07-20T06:43:58;99588.45;;;18.63;55.90
35307;BME280;21420;52.196;21.416;2023-07-20T06:46:26;99587.73;;;18.72;55.89
35307;BME280;21420;52.196;21.416;2023-07-20T06:48:53;99588.52;;;18.83;55.64
35307;BME280;21420;52.196;21.416;2023-07-20T06:51:23;99583.55;;;18.98;55.80
35307;BME280;21420;52.196;21.416;2023-07-20T06:53:52;99586.85;;;19.16;55.92
35307;BME280;21420;52.196;21.416;2023-07-20T06:56:18;99587.84;;;19.34;55.67
35307;BME280;21420;52.196;21.416;2023-07-20T06:58:49;99586.37;;;19.50;55.80
35307;BME280;21420;52.196;21.416;2023-07-20T07:01:16;99586.26;;;19.66;55.59
35307;BME280;21420;52.196;21.416;2023-07-20T07:03:43;99582.14;;;19.85;55.64
35307;BME280;21420;52.196;21.416;2023-07-20T07:06:10;99580.22;;;20.07;55.63
35307;BME280;21420;52.196;21.416;2023-07-20T07:08:37;99582.98;;;20.29;55.46
35307;BME280;21420;52.196;21.416;2023-07-20T07:11:04;99585.94;;;20.48;55.30
35307;BME280;21420;52.196;21.416;2023-07-20T07:13:32;99584.38;;;20.62;55.15
35307;BME280;21420;52.196;21.416;2023-07-20T07:15:59;99586.02;;;20.72;55.11
35307;BME280;21420;52.196;21.416;2023-07-20T07:18:25;99586.09;;;20.82;54.92
35307;BME280;21420;52.196;21.416;2023-07-20T07:20:53;99585.10;;;20.93;54.85
35307;BME280;21420;52.196;21.416;2023-07-20T07:23:20;99582.59;;;21.00;54.63
35307;BME280;21420;52.196;21.416;2023-07-20T07:25:47;99582.08;;;21.06;54.50
35307;BME280;21420;52.196;21.416;2023-07-20T07:28:14;99577.17;;;21.13;54.42
35307;BME280;21420;52.196;21.416;2023-07-20T07:30:41;99581.09;;;21.17;54.29
35307;BME280;21420;52.196;21.416;2023-07-20T07:33:08;99580.80;;;21.15;54.06
35307;BME280;21420;52.196;21.416;2023-07-20T07:35:37;99581.79;;;21.09;53.83
35307;BME280;21420;52.196;21.416;2023-07-20T07:38:05;99582.83;;;21.09;53.93
35307;BME280;21420;52.196;21.416;2023-07-20T07:40:53;99586.08;;;21.09;54.02
35307;BME280;21420;52.196;21.416;2023-07-20T07:43:20;99595.70;;;21.05;53.76
35307;BME280;21420;52.196;21.416;2023-07-20T07:45:47;99598.07;;;21.02;53.88
35307;BME280;21420;52.196;21.416;2023-07-20T07:48:14;99599.52;;;21.10;53.99
35307;BME280;21420;52.196;21.416;2023-07-20T07:50:41;99600.23;;;21.06;53.63
35307;BME280;21420;52.196;21.416;2023-07-20T07:53:08;99602.09;;;20.94;53.55
35307;BME280;21420;52.196;21.416;2023-07-20T07:55:36;99610.92;;;20.85;53.46
35307;BME280;21420;52.196;21.416;2023-07-20T07:58:03;99612.38;;;20.70;53.34
35307;BME280;21420;52.196;21.416;2023-07-20T08:00:30;99612.59;;;20.63;53.38
35307;BME280;21420;52.196;21.416;2023-07-20T08:02:57;99612.25;;;20.58;53.53
35307;BME280;21420;52.196;21.416;2023-07-20T08:05:24;99617.11;;;20.46;53.32
35307;BME280;21420;52.196;21.416;2023-07-20T08:07:51;99617.64;;;20.38;53.46
35307;BME280;21420;52.196;21.416;2023-07-20T08:10:19;99625.13;;;20.35;53.41
35307;BME280;21420;52.196;21.416;2023-07-20T08:12:46;99627.42;;;20.26;53.22
35307;BME280;21420;52.196;21.416;2023-07-20T08:15:12;99631.27;;;20.13;53.06
35307;BME280;21420;52.196;21.416;2023-07-20T08:17:41;99635.81;;;20.00;53.17
35307;BME280;21420;52.196;21.416;2023-07-20T08:20:13;99644.20;;;19.90;53.30
35307;BME280;21420;52.196;21.416;2023-07-20T08:22:40;99645.74;;;19.82;53.43
35307;BME280;21420;52.196;21.416;2023-07-20T08:25:08;99644.66;;;19.72;53.40
35307;BME280;21420;52.196;21.416;2023-07-20T08:27:37;99649.14;;;19.69;53.51
35307;BME280;21420;52.196;21.416;2023-07-20T08:30:04;99653.38;;;19.64;53.63
35307;BME280;21420;52.196;21.416;2023-07-20T08:32:32;99655.27;;;19.60;53.68
35307;BME280;21420;52.196;21.416;2023-07-20T08:34:59;99656.23;;;19.67;53.88
35307;BME280;21420;52.196;21.416;2023-07-20T08:37:26;99662.52;;;19.79;53.90
35307;BME280;21420;52.196;21.416;2023-07-20T08:39:53;99667.58;;;19.93;54.13
35307;BME280;21420;52.196;21.416;2023-07-20T08:42:20;99669.23;;;20.00;53.99
35307;BME280;21420;52.196;21.416;2023-07-20T08:44:49;99671.21;;;19.94;53.77
35307;BME280;21420;52.196;21.416;2023-07-20T08:47:20;99670.42;;;19.87;53.72
35307;BME280;21420;52.196;21.416;2023-07-20T08:49:50;99673.09;;;19.77;53.70
35307;BME280;21420;52.196;21.416;2023-07-20T08:52:17;99675.86;;;19.72;53.77
35307;BME280;21420;52.196;21.416;2023-07-20T08:54:44;99677.58;;;19.65;53.81
35307;BME280;21420;52.196;21.416;2023-07-20T08:57:13;99671.48;;;19.55;53.73
35307;BME280;21420;52.196;21.416;2023-07-20T08:59:41;99671.82;;;19.48;53.75
35307;BME280;21420;52.196;21.416;2023-07-20T09:02:14;99678.67;;;19.44;53.92
35307;BME280;21420;52.196;21.416;2023-07-20T09:04:45;99680.85;;;19.41;54.00
35307;BME280;21420;52.196;21.416;2023-07-20T09:07:13;99685.27;;;19.35;54.07
35307;BME280;21420;52.196;21.416;2023-07-20T09:09:41;99683.73;;;19.31;54.19
35307;BME280;21420;52.196;21.416;2023-07-20T09:12:15;99685.35;;;19.27;54.15
35307;BME280;21420;52.196;21.416;2023-07-20T09:14:43;99688.09;;;19.23;54.20
35307;BME280;21420;52.196;21.416;2023-07-20T09:17:14;99689.33;;;19.16;54.22
35307;BME280;21420;52.196;21.416;2023-07-20T09:19:47;99693.35;;;19.11;54.31
35307;BME280;21420;52.196;21.416;2023-07-20T09:22:15;99692.01;;;19.10;54.49
35307;BME280;21420;52.196;21.416;2023-07-20T09:24:42;99696.69;;;19.10;54.54
35307;BME280;21420;52.196;21.416;2023-07-20T09:27:10;99696.76;;;19.11;54.65
35307;BME280;21420;52.196;21.416;2023-07-20T09:29:50;99698.45;;;19.16;54.71
35307;BME280;21420;52.196;21.416;2023-07-20T09:32:18;99698.71;;;19.15;54.67
35307;BME280;21420;52.196;21.416;2023-07-20T09:34:50;99700.66;;;19.09;54.78
35307;BME280;21420;52.196;21.416;2023-07-20T09:37:22;99705.73;;;19.10;54.82
35307;BME280;21420;52.196;21.416;2023-07-20T09:39:52;99707.89;;;19.15;54.80
35307;BME280;21420;52.196;21.416;2023-07-20T09:42:22;99705.92;;;19.23;54.96
35307;BME280;21420;52.196;21.416;2023-07-20T09:44:55;99702.54;;;19.37;55.20
35307;BME280;21420;52.196;21.416;2023-07-20T09:47:23;99698.50;;;19.52;55.11
35307;BME280;21420;52.196;21.416;2023-07-20T09:49:58;99703.30;;;19.61;55.01
35307;BME280;21420;52.196;21.416;2023-07-20T09:52:29;99702.68;;;19.70;55.08
35307;BME280;21420;52.196;21.416;2023-07-20T09:54:59;99701.40;;;19.78;55.03
35307;BME280;21420;52.196;21.416;2023-07-20T09:57:26;99700.58;;;19.87;55.11
35307;BME280;21420;52.196;21.416;2023-07-20T09:59:53;99703.44;;;19.93;55.08
35307;BME280;21420;52.196;21.416;2023-07-20T10:02:24;99699.67;;;19.96;54.94
35307;BME280;21420;52.196;21.416;2023-07-20T10:04:53;99703.95;;;20.04;55.00
35307;BME280;21420;52.196;21.416;2023-07-20T10:07:22;99706.90;;;20.09;55.04
35307;BME280;21420;52.196;21.416;2023-07-20T10:09:56;99706.95;;;20.24;55.26
35307;BME280;21420;52.196;21.416;2023-07-20T10:12:27;99709.26;;;20.40;55.29
35307;BME280;21420;52.196;21.416;2023-07-20T10:15:03;99712.66;;;20.58;55.14
35307;BME280;21420;52.196;21.416;2023-07-20T10:17:31;99713.59;;;20.86;55.33
35307;BME280;21420;52.196;21.416;2023-07-20T10:20:00;99712.11;;;21.13;55.30
35307;BME280;21420;52.196;21.416;2023-07-20T10:22:35;99712.60;;;21.50;55.38
35307;BME280;21420;52.196;21.416;2023-07-20T10:25:08;99714.40;;;21.93;55.19
35307;BME280;21420;52.196;21.416;2023-07-20T10:27:36;99715.02;;;22.36;55.04
35307;BME280;21420;52.196;21.416;2023-07-20T10:30:03;99708.16;;;22.53;54.61
35307;BME280;21420;52.196;21.416;2023-07-20T10:32:32;99707.32;;;23.02;54.95
35307;BME280;21420;52.196;21.416;2023-07-20T10:35:00;99703.91;;;23.57;54.77
35307;BME280;21420;52.196;21.416;2023-07-20T10:37:47;99703.20;;;24.11;54.59
35307;BME280;21420;52.196;21.416;2023-07-20T10:43:11;99698.29;;;24.97;53.88
35307;BME280;21420;52.196;21.416;2023-07-20T10:45:52;99698.34;;;25.18;53.12
35307;BME280;21420;52.196;21.416;2023-07-20T10:48:23;99701.86;;;25.03;52.40
35307;BME280;21420;52.196;21.416;2023-07-20T10:51:09;99704.20;;;24.88;52.11
35307;BME280;21420;52.196;21.416;2023-07-20T10:53:36;99703.39;;;24.66;51.79
35307;BME280;21420;52.196;21.416;2023-07-20T10:56:09;99699.05;;;24.27;51.08
35307;BME280;21420;52.196;21.416;2023-07-20T10:58:37;99699.34;;;23.99;51.17
35307;BME280;21420;52.196;21.416;2023-07-20T11:01:04;99697.04;;;23.85;51.25
35307;BME280;21420;52.196;21.416;2023-07-20T11:03:33;99698.85;;;23.74;51.19
35307;BME280;21420;52.196;21.416;2023-07-20T11:09:14;99701.04;;;23.34;50.94
35307;BME280;21420;52.196;21.416;2023-07-20T11:11:47;99699.71;;;23.04;50.71
35307;BME280;21420;52.196;21.416;2023-07-20T11:14:23;99699.27;;;22.92;50.99
35307;BME280;21420;52.196;21.416;2023-07-20T11:16:51;99697.45;;;22.75;50.94
35307;BME280;21420;52.196;21.416;2023-07-20T11:19:19;99698.08;;;22.69;51.03
35307;BME280;21420;52.196;21.416;2023-07-20T11:21:51;99703.77;;;22.61;50.76
35307;BME280;21420;52.196;21.416;2023-07-20T11:24:30;99701.52;;;22.34;50.73
35307;BME280;21420;52.196;21.416;2023-07-20T11:26:58;99700.90;;;22.21;50.87
35307;BME280;21420;52.196;21.416;2023-07-20T11:29:25;99696.23;;;22.20;51.07
35307;BME280;21420;52.196;21.416;2023-07-20T11:31:57;99691.27;;;22.37;51.44
35307;BME280;21420;52.196;21.416;2023-07-20T11:34:25;99688.48;;;22.53;51.37
35307;BME280;21420;52.196;21.416;2023-07-20T11:36:54;99683.83;;;22.81;51.74
35307;BME280;21420;52.196;21.416;2023-07-20T11:39:24;99683.39;;;23.36;52.15
35307;BME280;21420;52.196;21.416;2023-07-20T11:41:57;99682.16;;;23.82;51.57
35307;BME280;21420;52.196;21.416;2023-07-20T11:44:28;99681.45;;;23.93;51.11
35307;BME280;21420;52.196;21.416;2023-07-20T11:47:04;99678.52;;;24.42;51.35
35307;BME280;21420;52.196;21.416;2023-07-20T11:49:35;99675.54;;;25.44;51.90
35307;BME280;21420;52.196;21.416;2023-07-20T11:52:08;99674.47;;;26.38;51.89
35307;BME280;21420;52.196;21.416;2023-07-20T11:54:38;99675.16;;;26.85;51.09
35307;BME280;21420;52.196;21.416;2023-07-20T11:57:06;99674.85;;;27.06;50.53
35307;BME280;21420;52.196;21.416;2023-07-20T11:59:33;99674.80;;;27.32;50.31
35307;BME280;21420;52.196;21.416;2023-07-20T12:02:03;99675.47;;;27.50;49.97
35307;BME280;21420;52.196;21.416;2023-07-20T12:04:31;99674.25;;;27.49;49.54
35307;BME280;21420;52.196;21.416;2023-07-20T12:06:59;99673.20;;;27.51;49.21
35307;BME280;21420;52.196;21.416;2023-07-20T12:09:26;99669.79;;;27.83;49.22
35307;BME280;21420;52.196;21.416;2023-07-20T12:12:13;99668.95;;;27.69;48.32
35307;BME280;21420;52.196;21.416;2023-07-20T12:14:40;99664.50;;;27.33;47.70
35307;BME280;21420;52.196;21.416;2023-07-20T12:17:08;99658.22;;;27.28;48.05
35307;BME280;21420;52.196;21.416;2023-07-20T12:19:38;99657.63;;;27.68;48.37
35307;BME280;21420;52.196;21.416;2023-07-20T12:22:07;99658.67;;;28.00;48.50
35307;BME280;21420;52.196;21.416;2023-07-20T12:24:34;99654.12;;;28.65;48.49
35307;BME280;21420;52.196;21.416;2023-07-20T12:27:02;99650.30;;;29.18;47.93
35307;BME280;21420;52.196;21.416;2023-07-20T12:29:30;99649.73;;;29.37;47.19
35307;BME280;21420;52.196;21.416;2023-07-20T12:31:58;99649.31;;;29.39;46.83
35307;BME280;21420;52.196;21.416;2023-07-20T12:34:25;99646.33;;;29.43;46.30
35307;BME280;21420;52.196;21.416;2023-07-20T12:36:52;99643.25;;;28.78;45.13
35307;BME280;21420;52.196;21.416;2023-07-20T12:39:19;99646.58;;;28.13;45.24
35307;BME280;21420;52.196;21.416;2023-07-20T12:41:46;99648.89;;;27.70;45.13
35307;BME280;21420;52.196;21.416;2023-07-20T12:44:12;99648.55;;;27.45;45.53
35307;BME280;21420;52.196;21.416;2023-07-20T12:46:39;99650.81;;;27.57;46.14
35307;BME280;21420;52.196;21.416;2023-07-20T12:49:07;99645.04;;;27.95;46.12
35307;BME280;21420;52.196;21.416;2023-07-20T12:51:33;99644.89;;;27.87;45.31
35307;BME280;21420;52.196;21.416;2023-07-20T12:54:00;99650.33;;;27.61;45.24
35307;BME280;21420;52.196;21.416;2023-07-20T12:56:27;99648.53;;;27.56;45.64
35307;BME280;21420;52.196;21.416;2023-07-20T12:58:57;99640.64;;;27.71;45.65
35307;BME280;21420;52.196;21.416;2023-07-20T13:01:25;99637.21;;;28.03;45.95
35307;BME280;21420;52.196;21.416;2023-07-20T13:03:51;99636.94;;;28.45;45.88
35307;BME280;21420;52.196;21.416;2023-07-20T13:06:21;99629.80;;;28.64;45.42
35307;BME280;21420;52.196;21.416;2023-07-20T13:08:51;99627.41;;;28.56;44.77
35307;BME280;21420;52.196;21.416;2023-07-20T13:11:22;99626.80;;;28.00;44.29
35307;BME280;21420;52.196;21.416;2023-07-20T13:13:49;99617.45;;;27.72;44.01
35307;BME280;21420;52.196;21.416;2023-07-20T13:16:16;99613.25;;;27.48;43.65